Time;durP1;ratioP1;P1;durP2;ratioP2;P2;SDS_P1;SDS_P2;PMS_P1;PMS_P2;Temp;Humidity;BMP_temperature;BMP_pressure;BME280_temperature;BME280_humidity;BME280_pressure;Samples;Min_cycle;Max_cycle;Signal;HPM_P1;HPM_P2
2023/10/06 00:00:34;;;;;;;6.47;4.20;;;;;;;9.77;100.00;101385.69;5014919;28;20219;-84
2023/10/06 00:03:05;;;;;;;7.17;3.60;;;;;;;9.81;100.00;101388.31;5019899;28;20194;-83
2023/10/06 00:05:30;;;;;;;5.30;3.50;;;;;;;9.84;100.00;101378.88;5023486;28;20237;-83
2023/10/06 00:07:57;;;;;;;5.50;3.90;;;;;;;9.88;100.00;101378.06;5016578;28;20190;-80
2023/10/06 00:10:27;;;;;;;3.90;3.47;;;;;;;9.87;100.00;101381.50;5021628;28;20218;-80
2023/10/06 00:12:58;;;;;;;4.90;4.07;;;;;;;9.88;100.00;101385.84;5023921;28;20194;-77
2023/10/06 00:15:40;;;;;;;6.50;4.07;;;;;;;9.85;100.00;101387.53;5016889;28;20671;-82
2023/10/06 00:18:16;;;;;;;7.80;4.57;;;;;;;9.79;100.00;101377.09;5007151;28;20643;-81
2023/10/06 00:20:48;;;;;;;6.03;4.20;;;;;;;9.74;100.00;101387.38;5021012;28;20273;-80
2023/10/06 00:23:14;;;;;;;8.37;4.33;;;;;;;9.68;100.00;101387.34;5025026;28;20249;-84
2023/10/06 00:25:43;;;;;;;6.67;4.70;;;;;;;9.63;100.00;101383.81;5016041;28;20187;-79
2023/10/06 00:28:20;;;;;;;6.93;4.60;;;;;;;9.57;100.00;101389.78;5013592;28;20729;-82
2023/10/06 00:30:56;;;;;;;7.53;4.70;;;;;;;9.45;100.00;101387.88;5009012;28;20210;-84
2023/10/06 00:33:27;;;;;;;7.33;4.30;;;;;;;9.34;100.00;101387.75;5016450;28;20262;-83
2023/10/06 00:35:53;;;;;;;7.70;4.67;;;;;;;9.26;100.00;101390.22;5015926;28;20274;-79
2023/10/06 00:38:18;;;;;;;6.77;4.70;;;;;;;9.19;100.00;101378.06;5011339;28;20229;-85
2023/10/06 00:40:51;;;;;;;6.70;4.30;;;;;;;9.18;100.00;101385.78;5015953;28;20293;-83
2023/10/06 00:43:34;;;;;;;5.63;4.30;;;;;;;9.17;100.00;101387.50;5018723;28;20195;-86
2023/10/06 00:46:01;;;;;;;5.43;3.87;;;;;;;9.15;100.00;101387.47;5027569;28;20245;-83
2023/10/06 00:48:30;;;;;;;5.57;4.13;;;;;;;9.15;100.00;101382.31;5007384;28;20196;-84
2023/10/06 00:50:57;;;;;;;6.60;4.37;;;;;;;9.14;100.00;101384.88;5020392;28;20896;-82
2023/10/06 00:53:31;;;;;;;6.30;4.50;;;;;;;9.13;100.00;101376.28;5011509;28;20191;-84
2023/10/06 00:56:00;;;;;;;4.87;3.47;;;;;;;9.14;100.00;101372.84;5020289;28;20192;-83
2023/10/06 00:58:28;;;;;;;6.00;3.93;;;;;;;9.15;100.00;101363.38;5013391;28;20198;-85
2023/10/06 01:00:56;;;;;;;7.10;3.80;;;;;;;9.14;100.00;101362.50;5017342;28;20213;-80
2023/10/06 01:03:22;;;;;;;5.47;4.10;;;;;;;9.14;100.00;101362.50;5016390;28;20199;-79
2023/10/06 01:05:47;;;;;;;7.27;4.13;;;;;;;9.14;100.00;101356.47;5018111;28;20286;-83
2023/10/06 01:08:12;;;;;;;6.27;3.93;;;;;;;9.13;100.00;101354.72;5015815;28;20208;-80
2023/10/06 01:10:40;;;;;;;4.47;3.70;;;;;;;9.11;100.00;101351.25;5018300;28;20938;-79
2023/10/06 01:13:14;;;;;;;5.17;4.13;;;;;;;9.06;100.00;101346.03;5045576;28;20187;-83
2023/10/06 01:15:49;;;;;;;5.03;3.77;;;;;;;9.00;100.00;101346.81;5019761;28;20766;-82
2023/10/06 01:18:40;;;;;;;6.20;3.50;;;;;;;8.96;100.00;101347.59;5012774;28;20273;-84
2023/10/06 01:21:16;;;;;;;4.53;2.80;;;;;;;8.92;100.00;101351.00;5008274;28;20230;-85
2023/10/06 01:23:45;;;;;;;3.40;2.70;;;;;;;8.82;100.00;101352.56;5013842;28;20283;-77
2023/10/06 01:26:13;;;;;;;7.47;3.23;;;;;;;8.72;100.00;101357.56;5012352;28;20298;-83
2023/10/06 01:28:44;;;;;;;5.17;3.10;;;;;;;8.65;100.00;101354.00;5017582;28;20199;-85
2023/10/06 01:31:11;;;;;;;4.30;3.40;;;;;;;8.63;100.00;101359.13;5026639;28;20223;-83
2023/10/06 01:33:36;;;;;;;4.70;3.43;;;;;;;8.60;100.00;101361.69;5031461;28;20197;-77
2023/10/06 01:36:13;;;;;;;4.57;3.60;;;;;;;8.60;100.00;101360.81;5021563;28;20217;-81
2023/10/06 01:38:41;;;;;;;4.67;2.87;;;;;;;8.60;100.00;101355.63;5012971;28;20196;-81
2023/10/06 01:41:06;;;;;;;4.80;3.07;;;;;;;8.64;100.00;101354.84;5027689;28;20235;-83
2023/10/06 01:43:33;;;;;;;4.13;2.90;;;;;;;8.66;100.00;101348.00;5018618;28;20232;-82
2023/10/06 01:45:59;;;;;;;6.77;3.80;;;;;;;8.69;100.00;101342.91;5021534;28;20932;-82
2023/10/06 01:48:28;;;;;;;5.57;3.47;;;;;;;8.71;100.00;101342.91;5019816;28;20198;-84
2023/10/06 01:50:55;;;;;;;4.57;3.07;;;;;;;8.75;100.00;101343.00;5019925;28;20256;-80
2023/10/06 01:53:20;;;;;;;4.53;3.47;;;;;;;8.81;100.00;101340.50;5028168;28;20178;-78
2023/10/06 01:55:52;;;;;;;5.13;3.23;;;;;;;8.87;100.00;101344.91;5046016;28;20161;-76
2023/10/06 01:58:17;;;;;;;5.63;3.43;;;;;;;8.87;100.00;101349.16;5031103;28;20571;-78
2023/10/06 02:00:45;;;;;;;7.40;4.10;;;;;;;8.88;100.00;101348.31;5021174;28;20196;-82
2023/10/06 02:03:11;;;;;;;5.83;3.97;;;;;;;8.83;100.00;101349.16;5011498;28;20199;-82
2023/10/06 02:05:39;;;;;;;8.27;4.57;;;;;;;8.81;100.00;101339.63;5032401;28;20199;-80
2023/10/06 02:08:09;;;;;;;4.77;4.17;;;;;;;8.77;100.00;101343.88;5016052;28;20230;-84
2023/10/06 02:10:35;;;;;;;6.10;3.53;;;;;;;8.73;100.00;101338.66;5017679;28;20312;-82
2023/10/06 02:13:01;;;;;;;5.73;4.13;;;;;;;8.71;100.00;101336.03;5017914;28;20190;-81
2023/10/06 02:15:26;;;;;;;5.93;4.13;;;;;;;8.72;100.00;101336.91;5012324;28;20248;-82
2023/10/06 02:17:51;;;;;;;6.63;3.70;;;;;;;8.66;100.00;101325.66;5015207;28;20190;-82
2023/10/06 02:20:30;;;;;;;6.97;3.87;;;;;;;8.64;100.00;101332.50;5010027;28;20203;-84
2023/10/06 02:22:59;;;;;;;5.97;4.00;;;;;;;8.63;100.00;101335.06;5015716;28;20191;-84
2023/10/06 02:25:26;;;;;;;8.57;4.37;;;;;;;8.60;100.00;101335.00;5015919;28;20659;-83
2023/10/06 02:27:52;;;;;;;7.27;4.10;;;;;;;8.57;100.00;101341.00;5011304;28;20769;-82
2023/10/06 02:30:24;;;;;;;5.47;3.80;;;;;;;8.52;100.00;101340.91;5016698;28;20234;-83
2023/10/06 02:32:51;;;;;;;6.23;4.00;;;;;;;8.48;100.00;101335.66;5018722;28;20205;-83
2023/10/06 02:35:17;;;;;;;5.43;4.00;;;;;;;8.44;100.00;101336.44;5015387;28;20191;-86
2023/10/06 02:37:46;;;;;;;6.10;3.80;;;;;;;8.41;100.00;101336.38;5012560;28;20268;-82
2023/10/06 02:40:11;;;;;;;4.93;3.47;;;;;;;8.33;100.00;101326.78;5017295;28;20257;-80
2023/10/06 02:42:56;;;;;;;4.00;3.27;;;;;;;8.28;100.00;101328.44;5008875;28;20654;-81
2023/10/06 02:45:22;;;;;;;5.23;2.87;;;;;;;8.23;100.00;101330.06;5016730;28;20188;-83
2023/10/06 02:47:48;;;;;;;4.90;3.30;;;;;;;8.19;100.00;101323.09;5012552;28;20182;-78
2023/10/06 02:50:20;;;;;;;3.60;2.90;;;;;;;8.14;100.00;101330.75;5018177;28;20690;-82
2023/10/06 02:52:46;;;;;;;6.20;3.77;;;;;;;8.12;100.00;101327.28;5019246;28;20195;-84
2023/10/06 02:55:19;;;;;;;5.97;3.60;;;;;;;8.13;100.00;101328.16;5012456;28;20251;-80
2023/10/06 02:57:50;;;;;;;5.90;3.50;;;;;;;8.11;100.00;101333.28;5011909;28;20190;-83
2023/10/06 03:00:38;;;;;;;3.70;3.10;;;;;;;8.08;100.00;101335.84;5015133;28;20295;-83
2023/10/06 03:03:03;;;;;;;4.93;3.33;;;;;;;8.04;100.00;101334.88;5011912;28;20200;-81
2023/10/06 03:05:32;;;;;;;4.73;3.10;;;;;;;8.01;100.00;101334.84;5010041;28;20185;-83
2023/10/06 03:08:01;;;;;;;5.70;3.83;;;;;;;8.01;100.00;101339.13;5017690;28;20287;-82
2023/10/06 03:10:40;;;;;;;3.60;3.03;;;;;;;8.01;100.00;101340.00;5014042;28;20939;-84
2023/10/06 03:13:08;;;;;;;5.43;3.27;;;;;;;8.01;100.00;101337.44;5011452;28;20312;-85
2023/10/06 03:15:42;;;;;;;4.17;3.40;;;;;;;8.04;100.00;101328.88;5014399;28;20836;-85
2023/10/06 03:18:08;;;;;;;3.80;3.30;;;;;;;8.05;100.00;101338.34;5014942;28;20699;-79
2023/10/06 03:21:01;;;;;;;4.10;3.27;;;;;;;8.06;100.00;101334.94;5011786;28;20211;-81
2023/10/06 03:25:54;;;;;;;4.83;3.60;;;;;;;7.99;100.00;101330.47;5013600;28;20544;-80
2023/10/06 03:28:20;;;;;;;5.40;3.63;;;;;;;8.05;100.00;101335.78;5011502;28;20216;-82
2023/10/06 03:30:49;;;;;;;5.23;3.60;;;;;;;8.11;100.00;101333.28;5009408;28;20217;-83
2023/10/06 03:33:18;;;;;;;4.57;3.67;;;;;;;8.14;100.00;101335.06;5014300;28;20240;-81
2023/10/06 03:35:47;;;;;;;4.27;3.60;;;;;;;8.17;100.00;101328.25;5014596;28;20647;-84
2023/10/06 03:46:20;;;;;;;6.70;4.10;;;;;;;8.05;100.00;101339.19;5021260;28;20700;-83
2023/10/06 03:48:48;;;;;;;5.03;3.87;;;;;;;8.03;100.00;101342.59;5014263;28;20271;-83
2023/10/06 03:51:22;;;;;;;4.30;3.60;;;;;;;8.01;100.00;101333.97;5018534;28;20294;-84
2023/10/06 03:53:51;;;;;;;4.63;3.47;;;;;;;7.98;100.00;101332.22;5015277;28;20195;-83
2023/10/06 03:56:16;;;;;;;4.43;3.40;;;;;;;7.92;100.00;101338.13;5017588;28;20267;-84
2023/10/06 03:58:43;;;;;;;4.93;3.23;;;;;;;7.87;100.00;101337.16;5013294;28;20538;-79
2023/10/06 04:01:11;;;;;;;3.90;3.17;;;;;;;7.82;100.00;101328.47;5024170;28;20192;-78
2023/10/06 04:03:38;;;;;;;3.70;2.90;;;;;;;7.75;100.00;101324.91;5035017;28;20179;-79
2023/10/06 04:06:04;;;;;;;3.70;3.20;;;;;;;7.71;100.00;101325.69;5065968;28;20546;-79
2023/10/06 04:08:29;;;;;;;3.33;3.00;;;;;;;7.68;100.00;101329.91;5014275;28;20196;-81
2023/10/06 04:10:58;;;;;;;4.77;3.00;;;;;;;7.67;100.00;101333.31;5014435;28;20526;-82
2023/10/06 04:13:24;;;;;;;3.57;3.20;;;;;;;7.69;100.00;101331.63;5011521;28;20197;-84
2023/10/06 04:15:50;;;;;;;3.20;2.90;;;;;;;7.74;100.00;101330.88;5016928;28;20250;-81
2023/10/06 04:18:18;;;;;;;4.17;3.27;;;;;;;7.77;100.00;101323.22;5011755;28;20637;-80
2023/10/06 04:20:45;;;;;;;4.23;3.20;;;;;;;7.80;100.00;101313.81;5008760;28;20209;-83
2023/10/06 04:23:12;;;;;;;3.60;3.10;;;;;;;7.84;100.00;101323.34;5009742;28;20197;-83
2023/10/06 04:25:38;;;;;;;4.07;2.77;;;;;;;7.86;100.00;101329.41;5009782;28;20321;-78
2023/10/06 04:28:08;;;;;;;3.40;3.10;;;;;;;7.85;100.00;101325.94;5010722;28;20198;-80
2023/10/06 04:30:54;;;;;;;3.70;2.90;;;;;;;7.81;100.00;101321.56;5008074;28;20215;-82
2023/10/06 04:33:19;;;;;;;5.20;3.50;;;;;;;7.82;100.00;101320.72;5013466;28;20247;-81
2023/10/06 04:38:29;;;;;;;3.40;3.10;;;;;;;7.71;100.00;101317.09;5008895;28;20911;-83
2023/10/06 04:40:58;;;;;;;3.10;2.80;;;;;;;7.61;100.00;101316.91;5014844;28;20273;-83
2023/10/06 04:43:24;;;;;;;4.33;3.57;;;;;;;7.61;100.00;101326.34;5019208;28;20187;-84
2023/10/06 04:45:50;;;;;;;4.13;3.20;;;;;;;7.59;100.00;101321.16;5019173;28;20187;-81
2023/10/06 04:48:18;;;;;;;5.60;2.87;;;;;;;7.55;100.00;101324.50;5027018;28;20179;-83
2023/10/06 04:50:44;;;;;;;5.27;3.20;;;;;;;7.51;100.00;101322.69;5016394;28;20216;-82
2023/10/06 04:53:11;;;;;;;4.70;3.00;;;;;;;7.52;100.00;101315.84;5029447;28;20220;-81
2023/10/06 04:55:39;;;;;;;3.17;2.87;;;;;;;7.50;100.00;101314.94;5014513;28;20185;-83
2023/10/06 04:58:07;;;;;;;3.50;3.20;;;;;;;7.46;100.00;101307.16;5024379;28;20178;-81
2023/10/06 05:00:33;;;;;;;2.90;2.70;;;;;;;7.47;100.00;101310.63;5027277;28;20200;-83
2023/10/06 05:02:59;;;;;;;3.67;2.80;;;;;;;7.49;100.00;101314.06;5015725;28;20292;-82
2023/10/06 05:05:26;;;;;;;3.10;2.80;;;;;;;7.50;100.00;101317.53;5016957;28;20191;-81
2023/10/06 05:07:53;;;;;;;3.23;2.60;;;;;;;7.48;100.00;101323.50;5007791;28;20225;-82
2023/10/06 05:10:25;;;;;;;3.87;2.90;;;;;;;7.47;100.00;101320.91;5019644;28;20218;-85
2023/10/06 05:12:54;;;;;;;5.80;3.60;;;;;;;7.46;100.00;101314.03;5013494;28;20185;-83
2023/10/06 05:15:33;;;;;;;4.90;3.27;;;;;;;7.45;100.00;101313.13;5014930;28;20200;-81
2023/10/06 05:18:11;;;;;;;4.73;3.27;;;;;;;7.45;100.00;101317.44;5015979;28;20181;-82
2023/10/06 05:20:38;;;;;;;4.70;3.07;;;;;;;7.43;100.00;101317.38;5013093;28;20203;-81
2023/10/06 05:23:09;;;;;;;6.77;3.60;;;;;;;7.43;100.00;101314.81;5021940;28;20281;-84
2023/10/06 05:25:41;;;;;;;3.77;3.10;;;;;;;7.43;100.00;101317.38;5024590;28;20663;-82
2023/10/06 05:28:10;;;;;;;4.77;3.63;;;;;;;7.42;100.00;101314.78;5022899;28;21070;-82
2023/10/06 05:30:36;;;;;;;4.37;3.97;;;;;;;7.40;100.00;101319.94;5023067;28;20275;-78
2023/10/06 05:33:03;;;;;;;5.20;3.87;;;;;;;7.40;100.00;101330.22;5045215;28;20206;-77
2023/10/06 05:35:36;;;;;;;4.20;3.10;;;;;;;7.36;100.00;101324.94;5046580;28;20178;-81
2023/10/06 05:38:08;;;;;;;2.97;2.43;;;;;;;7.33;100.00;101333.50;5014779;28;20187;-82
2023/10/06 05:40:34;;;;;;;3.40;3.00;;;;;;;7.31;100.00;101341.19;5021315;28;20207;-83
2023/10/06 05:43:00;;;;;;;3.60;2.90;;;;;;;7.31;100.00;101343.78;5033416;28;20193;-82
2023/10/06 05:45:26;;;;;;;4.10;3.57;;;;;;;7.33;100.00;101338.66;5030591;28;20616;-83
2023/10/06 05:47:51;;;;;;;4.03;2.87;;;;;;;7.30;100.00;101339.47;5024775;28;20289;-81
2023/10/06 05:50:29;;;;;;;3.50;3.00;;;;;;;7.28;100.00;101350.53;5022634;28;20211;-81
2023/10/06 05:53:04;;;;;;;3.50;2.50;;;;;;;7.31;100.00;101361.81;5011951;28;20192;-78
2023/10/06 05:55:30;;;;;;;3.17;2.40;;;;;;;7.32;100.00;101370.38;5008198;28;20596;-79
2023/10/06 05:57:58;;;;;;;4.50;2.80;;;;;;;7.34;100.00;101358.41;5015988;28;20180;-83
2023/10/06 06:00:33;;;;;;;4.83;2.80;;;;;;;7.40;100.00;101373.13;5024438;28;20203;-81
2023/10/06 06:03:10;;;;;;;3.33;2.73;;;;;;;7.43;100.00;101374.06;5025966;28;20194;-81
2023/10/06 06:05:40;;;;;;;6.27;3.47;;;;;;;7.47;100.00;101372.44;5018398;28;20194;-82
2023/10/06 06:08:08;;;;;;;3.47;2.70;;;;;;;7.52;100.00;101377.69;5022629;28;20182;-80
2023/10/06 06:10:35;;;;;;;3.03;2.40;;;;;;;7.60;100.00;101383.84;5029428;28;21013;-79
2023/10/06 06:13:00;;;;;;;4.60;3.33;;;;;;;7.66;100.00;101389.13;5051877;28;20253;-80
2023/10/06 06:15:26;;;;;;;5.87;3.50;;;;;;;7.70;100.00;101393.53;5053270;28;20224;-82
2023/10/06 06:17:53;;;;;;;4.83;3.63;;;;;;;7.73;100.00;101401.28;5027628;28;20206;-80
2023/10/06 06:20:21;;;;;;;4.67;3.40;;;;;;;7.78;100.00;101407.44;5026075;28;20226;-82
2023/10/06 06:22:53;;;;;;;3.97;3.40;;;;;;;7.85;100.00;101392.94;5018127;28;20202;-81
2023/10/06 06:25:29;;;;;;;3.90;3.23;;;;;;;7.94;100.00;101400.84;5023502;28;20236;-83
2023/10/06 06:27:56;;;;;;;3.80;2.90;;;;;;;7.99;100.00;101394.94;5025059;28;20212;-80
2023/10/06 06:30:23;;;;;;;3.37;2.63;;;;;;;8.04;100.00;101394.19;5023263;28;20281;-83
2023/10/06 06:32:49;;;;;;;2.50;2.30;;;;;;;8.10;100.00;101401.16;5018587;28;20211;-81
2023/10/06 06:35:19;;;;;;;3.37;3.03;;;;;;;8.19;100.00;101392.72;5031577;28;20331;-80
2023/10/06 06:37:52;;;;;;;3.53;3.10;;;;;;;8.28;100.00;101394.59;5027989;28;20232;-80
2023/10/06 06:40:21;;;;;;;3.87;3.37;;;;;;;8.34;100.00;101393.00;5024919;28;20207;-80
2023/10/06 06:42:48;;;;;;;4.80;3.93;;;;;;;8.38;100.00;101388.81;5025365;28;20193;-81
2023/10/06 06:45:14;;;;;;;6.23;3.80;;;;;;;8.40;100.00;101394.81;5031205;28;20217;-81
2023/10/06 06:47:43;;;;;;;4.13;3.50;;;;;;;8.42;100.00;101398.31;5032163;28;20606;-82
2023/10/06 06:50:15;;;;;;;3.90;3.50;;;;;;;8.44;100.00;101393.19;5022052;28;20245;-81
2023/10/06 06:52:41;;;;;;;4.17;3.40;;;;;;;8.43;100.00;101397.47;5025388;28;20253;-79
2023/10/06 06:55:12;;;;;;;3.80;3.40;;;;;;;8.41;100.00;101395.72;5023464;28;20522;-83
2023/10/06 06:58:00;;;;;;;4.10;3.53;;;;;;;8.45;100.00;101403.53;5026811;28;20251;-81
2023/10/06 07:00:25;;;;;;;5.43;3.77;;;;;;;8.49;100.00;101400.19;5025788;28;20207;-82
2023/10/06 07:02:52;;;;;;;3.50;3.17;;;;;;;8.57;100.00;101389.13;5020960;28;20968;-80
2023/10/06 07:05:22;;;;;;;4.30;3.43;;;;;;;8.70;100.00;101401.38;5025477;28;20203;-79
2023/10/06 07:07:50;;;;;;;3.97;3.17;;;;;;;8.85;100.00;101395.63;5023586;28;20194;-80
2023/10/06 07:10:22;;;;;;;3.87;3.47;;;;;;;9.04;100.00;101390.75;5022851;28;20334;-82
2023/10/06 07:12:48;;;;;;;3.73;3.33;;;;;;;9.23;100.00;101391.88;5025631;28;20191;-83
2023/10/06 07:15:20;;;;;;;4.57;3.53;;;;;;;9.40;100.00;101390.41;5026038;28;20281;-82
2023/10/06 07:17:51;;;;;;;5.27;3.80;;;;;;;9.54;100.00;101393.16;5019811;28;20210;-81
2023/10/06 07:20:19;;;;;;;5.07;4.37;;;;;;;9.60;100.00;101390.69;5021733;28;20207;-83
2023/10/06 07:22:45;;;;;;;4.23;3.70;;;;;;;9.64;100.00;101404.50;5023890;28;20219;-79
2023/10/06 07:25:11;;;;;;;4.93;4.20;;;;;;;9.70;100.00;101408.88;5022582;28;20234;-82
2023/10/06 07:27:40;;;;;;;4.43;3.90;;;;;;;9.78;100.00;101417.59;5031715;28;20190;-81
2023/10/06 07:30:10;;;;;;;4.40;3.83;;;;;;;9.87;100.00;101425.47;5025894;28;20223;-81
2023/10/06 07:32:40;;;;;;;4.93;3.80;;;;;;;9.97;100.00;101418.69;5016514;28;20277;-81
2023/10/06 07:35:08;;;;;;;4.83;3.97;;;;;;;10.06;100.00;101418.78;5019282;28;20200;-79
2023/10/06 07:37:33;;;;;;;6.30;4.33;;;;;;;10.11;100.00;101417.97;5020355;28;20202;-84
2023/10/06 07:40:04;;;;;;;5.57;3.60;;;;;;;10.20;100.00;101416.38;5013430;28;20207;-83
2023/10/06 07:42:29;;;;;;;4.40;3.43;;;;;;;10.30;100.00;101414.75;5022719;28;20184;-82
2023/10/06 07:44:55;;;;;;;4.73;3.97;;;;;;;10.41;100.00;101409.72;5016003;28;20216;-81
2023/10/06 07:47:24;;;;;;;5.60;3.97;;;;;;;10.50;100.00;101416.72;5023273;28;20202;-80
2023/10/06 07:49:50;;;;;;;5.47;4.10;;;;;;;10.59;100.00;101409.00;5020239;28;20215;-80
2023/10/06 07:52:17;;;;;;;5.83;4.10;;;;;;;10.69;100.00;101404.78;5017397;28;20277;-82
2023/10/06 07:54:43;;;;;;;5.33;4.20;;;;;;;10.79;100.00;101398.81;5017650;28;20195;-80
2023/10/06 07:57:10;;;;;;;5.40;4.07;;;;;;;10.87;100.00;101396.28;5013710;28;20211;-80
2023/10/06 07:59:36;;;;;;;4.63;4.10;;;;;;;10.97;100.00;101389.47;5023191;28;20215;-81
2023/10/06 08:02:03;;;;;;;6.13;4.13;;;;;;;11.07;100.00;101391.25;5024206;28;20219;-81
2023/10/06 08:04:28;;;;;;;9.77;5.53;;;;;;;11.16;100.00;101381.81;5028845;28;20226;-81
2023/10/06 08:06:54;;;;;;;6.00;4.20;;;;;;;11.24;100.00;101367.19;5021888;28;20275;-80
2023/10/06 08:09:21;;;;;;;4.77;4.10;;;;;;;11.33;100.00;101368.94;5021092;28;20192;-81
2023/10/06 08:11:47;;;;;;;5.73;4.40;;;;;;;11.39;100.00;101369.84;5015907;28;20273;-81
2023/10/06 08:14:13;;;;;;;4.83;4.10;;;;;;;11.52;100.00;101370.78;5021327;28;20188;-81
2023/10/06 08:16:40;;;;;;;5.53;4.40;;;;;;;11.66;100.00;101377.75;5020045;28;20202;-84
2023/10/06 08:19:05;;;;;;;7.33;5.13;;;;;;;11.71;100.00;101378.66;5049855;28;20215;-80
2023/10/06 08:21:31;;;;;;;5.97;4.70;;;;;;;11.83;100.00;101390.78;5050827;28;20206;-80
2023/10/06 08:23:56;;;;;;;6.13;4.53;;;;;;;11.97;100.00;101396.88;5048695;28;20168;-83
2023/10/06 08:26:21;;;;;;;7.93;5.10;;;;;;;12.03;100.00;101396.06;5030112;28;20207;-83
2023/10/06 08:28:47;;;;;;;5.83;4.97;;;;;;;12.06;100.00;101392.63;5035650;28;20285;-82
2023/10/06 08:31:16;;;;;;;8.00;5.90;;;;;;;12.24;100.00;101389.19;5030924;28;20216;-83
2023/10/06 08:33:41;;;;;;;8.80;5.67;;;;;;;12.35;100.00;101390.06;5025059;28;20178;-83
2023/10/06 08:36:10;;;;;;;8.20;5.60;;;;;;;12.57;100.00;101390.09;5029757;28;20189;-84
2023/10/06 08:38:36;;;;;;;8.73;5.47;;;;;;;12.63;100.00;101396.16;5027004;28;20281;-82
2023/10/06 08:41:02;;;;;;;6.27;4.97;;;;;;;12.83;100.00;101386.63;5030244;28;21187;-80
2023/10/06 08:43:28;;;;;;;8.63;6.50;;;;;;;12.81;100.00;101394.44;5026861;28;20231;-82
2023/10/06 08:46:01;;;;;;;8.27;6.00;;;;;;;12.88;100.00;101390.09;5025086;28;20656;-83
2023/10/06 08:48:31;;;;;;;7.33;5.63;;;;;;;12.87;100.00;101396.16;5022396;28;20208;-81
2023/10/06 08:50:59;;;;;;;6.97;5.33;;;;;;;13.13;100.00;101397.84;5038033;28;20239;-83
2023/10/06 08:53:26;;;;;;;6.97;5.37;;;;;;;13.20;100.00;101397.84;5055630;28;20185;-82
2023/10/06 08:55:52;;;;;;;8.33;6.00;;;;;;;13.18;100.00;101401.31;5030933;28;20192;-81
2023/10/06 08:58:18;;;;;;;5.60;4.80;;;;;;;13.45;100.00;101394.34;5025142;28;20183;-83
2023/10/06 09:00:43;;;;;;;5.77;5.17;;;;;;;13.62;100.00;101394.28;5025128;28;20203;-83
2023/10/06 09:03:11;;;;;;;7.63;5.53;;;;;;;13.76;100.00;101399.44;5026004;28;20960;-81
2023/10/06 09:05:40;;;;;;;7.97;6.30;;;;;;;13.99;100.00;101386.31;5030532;28;20728;-82
2023/10/06 09:08:11;;;;;;;5.93;4.83;;;;;;;14.11;100.00;101388.00;5031647;28;20196;-81
2023/10/06 09:10:41;;;;;;;6.47;5.10;;;;;;;14.18;100.00;101389.66;5020078;28;20211;-80
2023/10/06 09:13:11;;;;;;;10.40;6.90;;;;;;;14.12;100.00;101384.50;5017160;28;20301;-82
2023/10/06 09:15:43;;;;;;;10.23;6.07;;;;;;;13.95;100.00;101380.25;5014716;28;20667;-79
2023/10/06 09:18:21;;;;;;;8.33;5.80;;;;;;;13.96;100.00;101387.19;5022134;28;20186;-83
2023/10/06 09:20:48;;;;;;;6.13;5.43;;;;;;;14.22;100.00;101380.97;5029726;28;20214;-80
2023/10/06 09:23:30;;;;;;;6.90;5.67;;;;;;;14.29;100.00;101373.97;5025223;28;20180;-82
2023/10/06 09:25:57;;;;;;;6.37;5.40;;;;;;;14.31;100.00;101378.28;5027754;28;20188;-81
2023/10/06 09:28:23;;;;;;;8.97;5.40;;;;;;;14.38;100.00;101375.66;5022199;28;20647;-83
2023/10/06 09:30:50;;;;;;;8.20;6.00;;;;;;;14.24;100.00;101367.94;5016501;28;20218;-82
2023/10/06 09:33:16;;;;;;;7.87;5.37;;;;;;;14.39;100.00;101366.97;5026184;28;20184;-79
2023/10/06 09:35:43;;;;;;;6.93;5.00;;;;;;;14.45;100.00;101372.09;5028636;28;20210;-80
2023/10/06 09:38:16;;;;;;;5.53;4.60;;;;;;;14.49;100.00;101381.63;5032362;28;20205;-82
2023/10/06 09:40:45;;;;;;;7.67;4.90;;;;;;;14.60;100.00;101381.56;5020676;28;20196;-78
2023/10/06 09:43:15;;;;;;;6.47;5.30;;;;;;;14.66;100.00;101370.22;5028083;28;20211;-83
2023/10/06 09:45:44;;;;;;;6.90;5.03;;;;;;;14.74;100.00;101355.44;5024264;28;20238;-81
2023/10/06 09:48:15;;;;;;;5.37;4.77;;;;;;;14.85;100.00;101355.31;5013314;28;20234;-80
2023/10/06 09:50:50;;;;;;;5.40;4.50;;;;;;;14.95;100.00;101349.16;5030897;28;20246;-83
2023/10/06 09:53:19;;;;;;;5.13;4.63;;;;;;;15.11;100.00;101347.22;5025005;28;20327;-83
2023/10/06 09:55:48;;;;;;;6.50;5.20;;;;;;;15.19;100.00;101344.53;5025487;28;20275;-81
2023/10/06 09:58:17;;;;;;;6.30;4.50;;;;;;;15.19;100.00;101339.31;5012054;28;20274;-80
2023/10/06 10:00:43;;;;;;;6.03;4.60;;;;;;;15.29;100.00;101340.09;5016301;28;20199;-82
2023/10/06 10:03:12;;;;;;;6.63;5.23;;;;;;;15.30;100.00;101334.84;5025706;28;20275;-81
2023/10/06 10:05:38;;;;;;;5.93;4.80;;;;;;;15.39;100.00;101334.75;5019978;28;20195;-80
2023/10/06 10:08:07;;;;;;;7.10;5.43;;;;;;;15.50;100.00;101331.13;5024551;28;20195;-81
2023/10/06 10:10:36;;;;;;;7.13;4.80;;;;;;;15.47;100.00;101334.66;5047705;28;20297;-83
2023/10/06 10:13:19;;;;;;;6.43;5.43;;;;;;;15.54;99.35;101331.06;5019964;28;20214;-80
2023/10/06 10:16:02;;;;;;;5.63;5.07;;;;;;;15.61;99.39;101329.22;5030679;28;20183;-81
2023/10/06 10:18:36;;;;;;;6.60;4.90;;;;;;;15.64;99.46;101328.34;5023828;28;20275;-82
2023/10/06 10:21:04;;;;;;;6.23;5.07;;;;;;;15.54;99.65;101333.66;5017338;28;20202;-81
2023/10/06 10:23:30;;;;;;;8.47;6.70;;;;;;;15.55;99.46;101324.13;5018829;28;20193;-81
2023/10/06 10:26:14;;;;;;;7.93;5.93;;;;;;;15.51;99.89;101328.47;5017979;28;20216;-81
2023/10/06 10:28:39;;;;;;;6.67;5.10;;;;;;;15.61;99.73;101317.94;5032939;28;20325;-81
2023/10/06 10:31:05;;;;;;;6.93;4.80;;;;;;;15.67;99.59;101318.72;5022387;28;20286;-80
2023/10/06 10:33:37;;;;;;;6.27;5.27;;;;;;;15.65;99.12;101312.66;5044594;28;20191;-82
2023/10/06 10:36:17;;;;;;;5.17;4.63;;;;;;;15.80;98.73;101314.22;5033170;28;20561;-81
2023/10/06 10:38:44;;;;;;;8.73;5.60;;;;;;;15.89;99.15;101314.97;5034402;28;20191;-80
2023/10/06 10:41:10;;;;;;;9.67;6.60;;;;;;;15.62;98.02;101302.25;5024604;28;20573;-80
2023/10/06 10:43:37;;;;;;;6.00;5.07;;;;;;;15.86;98.49;101310.69;5019701;28;20184;-80
2023/10/06 10:46:04;;;;;;;7.03;5.60;;;;;;;15.80;98.98;101303.78;5018232;28;20200;-82
2023/10/06 10:48:37;;;;;;;6.30;4.70;;;;;;;15.98;98.52;101294.81;5021924;28;20564;-79
2023/10/06 10:51:12;;;;;;;6.93;4.73;;;;;;;16.13;98.69;101298.09;5016236;28;20301;-82
2023/10/06 10:53:44;;;;;;;11.23;5.30;;;;;;;16.29;98.62;101299.56;5029550;28;20187;-80
2023/10/06 10:56:13;;;;;;;7.53;5.10;;;;;;;16.35;98.02;101306.44;5020704;28;20192;-82
2023/10/06 10:58:42;;;;;;;6.23;4.83;;;;;;;16.36;96.77;101302.06;5024036;28;20674;-80
2023/10/06 11:01:31;;;;;;;5.13;4.63;;;;;;;16.49;96.24;101298.34;5019304;28;20215;-80
2023/10/06 11:04:54;;;;;;;6.07;4.77;;;;;;;16.56;95.85;101299.97;5021827;28;21081;-80
2023/10/06 11:07:11;;;;;;;7.03;5.77;;;;;;;16.33;96.03;101289.91;5022039;28;20211;-83
2023/10/06 11:09:47;;;;;;;5.60;4.83;;;;;;;16.50;96.25;101292.22;5014990;28;20199;-79
2023/10/06 11:12:24;;;;;;;5.40;4.87;;;;;;;16.67;95.09;101283.22;5019887;28;20257;-81
2023/10/06 11:14:51;;;;;;;5.53;4.57;;;;;;;16.71;94.92;101287.50;5010562;28;20199;-79
2023/10/06 11:17:26;;;;;;;6.23;5.10;;;;;;;16.88;94.36;101284.56;5028598;28;20241;-80
2023/10/06 11:20:16;;;;;;;8.60;5.50;;;;;;;16.79;94.85;101282.13;5011974;28;20188;-81
2023/10/06 11:23:10;;;;;;;5.97;4.57;;;;;;;17.02;94.91;101281.72;5024897;28;20235;-80
2023/10/06 11:25:46;;;;;;;8.20;6.00;;;;;;;16.90;94.18;101277.56;5013881;28;20198;-79
2023/10/06 11:28:12;;;;;;;7.53;4.60;;;;;;;17.01;93.90;101277.38;5032243;28;20181;-80
2023/10/06 11:30:42;;;;;;;6.40;5.47;;;;;;;17.08;93.36;101272.88;5021755;28;20219;-80
2023/10/06 11:33:10;;;;;;;6.60;5.37;;;;;;;17.01;93.16;101273.03;5029940;28;20196;-81
2023/10/06 11:35:40;;;;;;;5.67;5.07;;;;;;;17.02;93.57;101273.88;5033445;28;20184;-80
2023/10/06 11:38:07;;;;;;;5.27;4.70;;;;;;;17.00;93.16;101276.53;5030279;28;20195;-79
2023/10/06 11:40:35;;;;;;;4.77;4.27;;;;;;;16.98;92.30;101267.84;5018123;28;20198;-79
2023/10/06 11:43:20;;;;;;;9.40;5.33;;;;;;;16.96;91.45;101269.63;5022945;28;20198;-79
2023/10/06 11:45:46;;;;;;;5.60;4.70;;;;;;;17.04;91.92;101262.47;5020278;28;20186;-80
2023/10/06 11:48:33;;;;;;;6.43;4.47;;;;;;;17.15;92.12;101261.44;5017121;28;20718;-79